createdAt,value
2022-09-22T00:01:59.513Z,8.70
2022-09-22T00:04:46.500Z,8.70
2022-09-22T00:07:33.716Z,8.69
2022-09-22T00:10:20.588Z,8.68
2022-09-22T00:13:11.302Z,8.66
2022-09-22T00:15:58.344Z,8.63
2022-09-22T00:18:45.519Z,8.65
2022-09-22T00:21:39.182Z,8.66
2022-09-22T00:24:29.467Z,8.62
2022-09-22T00:27:17.940Z,8.61
2022-09-22T00:30:04.949Z,8.62
2022-09-22T00:32:51.884Z,8.60
2022-09-22T00:35:39.103Z,8.59
2022-09-22T00:38:26.288Z,8.58
2022-09-22T00:41:13.157Z,8.58
2022-09-22T00:44:01.391Z,8.56
2022-09-22T00:46:51.504Z,8.56
2022-09-22T00:49:42.874Z,8.54
2022-09-22T00:52:31.971Z,8.52
2022-09-22T00:55:22.618Z,8.51
2022-09-22T00:58:11.768Z,8.38
2022-09-22T01:00:58.925Z,8.48
2022-09-22T01:03:46.443Z,8.45
2022-09-22T01:06:37.944Z,8.44
2022-09-22T01:09:26.688Z,8.43
2022-09-22T01:12:13.588Z,8.41
2022-09-22T01:15:14.645Z,8.40
2022-09-22T01:18:08.496Z,8.38
2022-09-22T01:20:55.458Z,8.37
2022-09-22T01:24:06.601Z,8.35
2022-09-22T01:26:59.572Z,8.34
2022-09-22T01:30:12.799Z,8.33
2022-09-22T01:33:18.371Z,8.13
2022-09-22T01:36:23.913Z,8.32
2022-09-22T01:39:45.733Z,8.30
2022-09-22T01:42:57.327Z,8.29
2022-09-22T01:45:48.198Z,8.28
2022-09-22T01:48:44.446Z,8.26
2022-09-22T01:51:37.125Z,8.26
2022-09-22T01:54:50.210Z,8.24
2022-09-22T01:57:55.010Z,8.24
2022-09-22T02:00:42.347Z,8.24
2022-09-22T02:03:39.639Z,8.22
2022-09-22T02:06:38.592Z,8.10
2022-09-22T02:09:36.555Z,8.16
2022-09-22T02:12:24.588Z,8.19
2022-09-22T02:15:11.677Z,8.18
2022-09-22T02:17:59.126Z,8.18
2022-09-22T02:20:46.448Z,8.17
2022-09-22T02:23:33.298Z,8.17
2022-09-22T02:26:24.946Z,8.13
2022-09-22T02:29:30.520Z,8.15
2022-09-22T02:32:18.815Z,8.13
2022-09-22T02:35:06.895Z,8.12
2022-09-22T02:38:05.535Z,8.10
2022-09-22T02:41:08.786Z,8.07
2022-09-22T02:44:03.809Z,8.05
2022-09-22T02:46:58.582Z,8.04
2022-09-22T02:49:48.228Z,8.00
2022-09-22T02:52:35.064Z,7.99
2022-09-22T02:55:22.263Z,7.98
2022-09-22T02:58:09.119Z,7.94
2022-09-22T03:00:56.175Z,7.91
2022-09-22T03:03:42.980Z,7.88
2022-09-22T03:06:29.988Z,7.84
2022-09-22T03:09:16.915Z,7.82
2022-09-22T03:12:04.432Z,7.79
2022-09-22T03:14:51.284Z,7.76
2022-09-22T03:17:38.323Z,7.72
2022-09-22T03:20:26.246Z,7.68
2022-09-22T03:23:13.111Z,7.60
2022-09-22T03:26:00.036Z,7.62
2022-09-22T03:28:47.103Z,7.58
2022-09-22T03:31:34.538Z,7.55
2022-09-22T03:34:21.563Z,7.49
2022-09-22T03:37:08.415Z,7.28
2022-09-22T03:39:55.488Z,7.42
2022-09-22T03:42:42.433Z,7.38
2022-09-22T03:45:31.196Z,7.34
2022-09-22T03:48:18.168Z,7.30
2022-09-22T03:51:05.076Z,7.08
2022-09-22T03:53:52.143Z,7.23
2022-09-22T03:56:39.112Z,7.21
2022-09-22T03:59:26.004Z,7.18
2022-09-22T04:02:13.126Z,7.09
2022-09-22T04:05:00.028Z,7.11
2022-09-22T04:07:46.979Z,7.07
2022-09-22T04:10:33.898Z,7.03
2022-09-22T04:13:20.883Z,6.99
2022-09-22T04:16:07.784Z,6.98
2022-09-22T04:18:57.400Z,6.95
2022-09-22T04:21:24.252Z,6.90
2022-09-22T04:24:11.192Z,6.89
2022-09-22T04:30:06.096Z,6.82
2022-09-22T04:32:52.974Z,6.78
2022-09-22T04:35:40.603Z,6.74
2022-09-22T04:38:27.489Z,6.71
2022-09-22T04:41:14.535Z,6.70
2022-09-22T04:44:01.327Z,6.67
2022-09-22T04:46:48.482Z,6.63
2022-09-22T04:49:35.520Z,6.62
2022-09-22T04:52:23.035Z,6.49
2022-09-22T04:55:10.027Z,6.56
2022-09-22T04:57:57.669Z,6.54
2022-09-22T05:00:47.940Z,6.52
2022-09-22T05:03:35.006Z,6.51
2022-09-22T05:06:21.837Z,6.50
2022-09-22T05:09:08.858Z,6.46
2022-09-22T05:11:56.036Z,6.48
2022-09-22T05:14:43.043Z,6.48
2022-09-22T05:17:29.836Z,6.46
2022-09-22T05:20:16.840Z,6.46
2022-09-22T05:23:04.092Z,6.46
2022-09-22T05:25:51.233Z,6.46
2022-09-22T05:28:38.188Z,6.46
2022-09-22T05:31:25.239Z,6.44
2022-09-22T05:34:12.070Z,6.42
2022-09-22T05:36:59.179Z,6.47
2022-09-22T05:39:46.023Z,6.48
2022-09-22T05:42:33.168Z,6.43
2022-09-22T05:45:20.091Z,6.49
2022-09-22T05:48:07.274Z,6.51
2022-09-22T05:50:54.152Z,6.54
2022-09-22T05:53:41.160Z,6.56
2022-09-22T05:56:28.117Z,6.54
2022-09-22T05:59:15.011Z,6.61
2022-09-22T06:02:09.386Z,6.60
2022-09-22T06:05:04.959Z,6.67
2022-09-22T06:07:51.855Z,6.63
2022-09-22T06:10:38.898Z,6.73
2022-09-22T06:13:28.781Z,6.77
2022-09-22T06:16:15.607Z,6.82
2022-09-22T06:19:05.667Z,6.87
2022-09-22T06:21:52.572Z,6.92
2022-09-22T06:24:39.532Z,6.96
2022-09-22T06:27:26.593Z,6.99
2022-09-22T06:30:13.556Z,7.06
2022-09-22T06:33:00.537Z,6.95
2022-09-22T06:35:50.507Z,7.17
2022-09-22T06:38:37.427Z,7.24
2022-09-22T06:41:24.379Z,7.30
2022-09-22T06:44:11.663Z,7.38
2022-09-22T06:46:58.693Z,7.45
2022-09-22T06:49:45.727Z,7.51
2022-09-22T06:52:35.822Z,7.57
2022-09-22T06:55:24.131Z,7.64
2022-09-22T06:58:12.037Z,7.72
2022-09-22T07:00:59.209Z,7.79
2022-09-22T07:03:46.216Z,7.87
2022-09-22T07:06:36.622Z,7.94
2022-09-22T07:09:25.214Z,8.02
2022-09-22T07:12:12.218Z,8.08
2022-09-22T07:14:59.124Z,8.14
2022-09-22T07:17:31.889Z,8.24
2022-09-22T07:19:58.899Z,8.32
2022-09-22T07:22:26.998Z,8.40
2022-09-22T07:24:54.059Z,8.50
2022-09-22T07:27:40.977Z,8.58
2022-09-22T07:30:28.499Z,8.70
2022-09-22T07:33:17.064Z,8.80
2022-09-22T07:36:04.358Z,8.90
2022-09-22T07:38:51.615Z,9.03
2022-09-22T07:41:50.119Z,9.12
2022-09-22T07:44:38.811Z,9.23
2022-09-22T07:47:27.961Z,9.33
2022-09-22T07:50:14.944Z,9.43
2022-09-22T07:53:01.796Z,9.54
2022-09-22T07:55:48.668Z,9.64
2022-09-22T07:58:35.647Z,9.72
2022-09-22T08:01:26.968Z,9.83
2022-09-22T08:04:16.589Z,9.95
2022-09-22T08:07:07.775Z,10.08
2022-09-22T08:09:54.716Z,10.22
2022-09-22T08:12:41.567Z,10.36
2022-09-22T08:15:29.139Z,10.49
2022-09-22T08:18:17.228Z,10.62
2022-09-22T08:21:04.139Z,10.74
2022-09-22T08:23:51.139Z,10.77
2022-09-22T08:26:38.772Z,10.92
2022-09-22T08:29:27.299Z,11.03
2022-09-22T08:32:14.147Z,11.11
2022-09-22T08:35:01.060Z,11.21
2022-09-22T08:37:48.268Z,11.32
2022-09-22T08:40:23.244Z,11.46
2022-09-22T08:42:54.152Z,11.58
2022-09-22T08:45:30.197Z,11.71
2022-09-22T08:48:22.440Z,11.81
2022-09-22T08:51:11.560Z,11.85
2022-09-22T08:53:44.983Z,12.04
2022-09-22T08:56:29.267Z,12.12
2022-09-22T08:59:23.332Z,12.20
2022-09-22T09:02:02.591Z,12.27
2022-09-22T09:05:03.911Z,12.33
2022-09-22T09:08:20.504Z,12.40
2022-09-22T09:11:14.686Z,12.49
2022-09-22T09:14:26.063Z,12.58
2022-09-22T09:17:23.569Z,12.68
2022-09-22T09:20:19.138Z,12.75
2022-09-22T09:23:15.897Z,12.73
2022-09-22T09:26:10.024Z,12.86
2022-09-22T09:29:11.754Z,12.92
2022-09-22T09:32:11.039Z,12.97
2022-09-22T09:34:58.039Z,13.03
2022-09-22T09:37:45.403Z,13.09
2022-09-22T09:40:40.028Z,13.22
2022-09-22T09:43:28.212Z,13.37
2022-09-22T09:46:29.397Z,13.57
2022-09-22T09:49:25.487Z,13.73
2022-09-22T09:52:20.319Z,13.91
2022-09-22T09:55:07.491Z,14.08
2022-09-22T09:57:54.377Z,14.23
2022-09-22T10:00:53.535Z,14.39
2022-09-22T10:04:04.476Z,14.53
2022-09-22T10:06:51.487Z,14.63
2022-09-22T10:09:47.891Z,14.80
2022-09-22T10:12:52.049Z,14.84
2022-09-22T10:15:44.785Z,14.99
2022-09-22T10:18:59.235Z,15.06
2022-09-22T10:21:46.995Z,15.07
2022-09-22T10:25:12.592Z,15.26
2022-09-22T10:27:59.543Z,15.38
2022-09-22T10:30:46.602Z,15.43
2022-09-22T10:33:43.708Z,15.46
2022-09-22T10:36:31.718Z,15.50
2022-09-22T10:39:19.105Z,15.36
2022-09-22T10:42:08.615Z,15.71
2022-09-22T10:44:55.708Z,15.82
2022-09-22T10:47:46.674Z,15.93
2022-09-22T10:50:54.511Z,16.07
2022-09-22T10:54:08.713Z,16.17
2022-09-22T10:57:06.359Z,16.26
2022-09-22T10:59:56.136Z,16.32
2022-09-22T11:03:20.831Z,16.27
2022-09-22T11:06:18.644Z,16.22
2022-09-22T11:09:29.220Z,16.16
2022-09-22T11:12:38.619Z,16.12
2022-09-22T11:15:43.554Z,16.06
2022-09-22T11:18:10.506Z,16.03
2022-09-22T11:20:44.424Z,16.03
2022-09-22T11:23:31.650Z,16.07
2022-09-22T11:26:13.808Z,16.10
2022-09-22T11:28:54.872Z,16.15
2022-09-22T11:31:39.296Z,16.20
2022-09-22T11:34:37.425Z,16.21
2022-09-22T11:37:26.323Z,16.19
2022-09-22T11:40:12.108Z,16.16
2022-09-22T11:42:51.339Z,16.11
2022-09-22T11:45:43.438Z,16.06
2022-09-22T11:48:25.992Z,16.02
2022-09-22T11:51:01.124Z,16.04
2022-09-22T11:53:56.070Z,15.99
2022-09-22T11:56:33.372Z,16.01
2022-09-22T11:59:06.566Z,15.96
2022-09-22T12:01:38.384Z,15.88
2022-09-22T12:04:14.201Z,15.80
2022-09-22T12:06:45.022Z,15.70
2022-09-22T12:09:37.755Z,15.54
2022-09-22T12:12:06.500Z,15.44
2022-09-22T12:14:35.267Z,15.38
2022-09-22T12:17:18.822Z,15.28
2022-09-22T12:20:13.303Z,15.41
2022-09-22T12:22:59.940Z,15.47
2022-09-22T12:25:54.418Z,15.52
2022-09-22T12:28:28.227Z,15.59
2022-09-22T12:31:02.493Z,15.67
2022-09-22T12:33:30.217Z,15.75
2022-09-22T12:35:58.329Z,15.80
2022-09-22T12:38:25.817Z,15.92
2022-09-22T12:40:58.461Z,16.01
2022-09-22T12:43:27.944Z,16.06
2022-09-22T12:45:57.584Z,16.11
2022-09-22T12:48:29.679Z,16.13
2022-09-22T12:51:16.927Z,16.09
2022-09-22T12:53:44.145Z,16.07
2022-09-22T12:56:46.614Z,16.09
2022-09-22T12:59:57.084Z,16.13
2022-09-22T13:02:26.611Z,16.13
2022-09-22T13:04:55.928Z,16.15
2022-09-22T13:07:43.126Z,16.19
2022-09-22T13:10:25.092Z,16.23
2022-09-22T13:13:21.588Z,16.26
2022-09-22T13:15:51.796Z,16.30
2022-09-22T13:18:37.422Z,16.34
2022-09-22T13:21:13.577Z,16.38
2022-09-22T13:24:12.133Z,16.32
2022-09-22T13:27:02.169Z,16.24
2022-09-22T13:29:49.319Z,16.13
2022-09-22T13:32:40.035Z,16.05
2022-09-22T13:36:01.351Z,15.91
2022-09-22T13:38:49.970Z,15.84
2022-09-22T13:41:40.394Z,15.76
2022-09-22T13:44:30.730Z,15.72
2022-09-22T13:47:21.029Z,15.68
2022-09-22T13:50:13.934Z,15.60
2022-09-22T13:53:01.747Z,15.54
2022-09-22T13:55:53.263Z,15.44
2022-09-22T13:59:07.137Z,15.33
2022-09-22T14:01:54.104Z,15.28
2022-09-22T14:04:42.339Z,15.23
2022-09-22T14:07:30.390Z,15.20
2022-09-22T14:10:19.380Z,15.08
2022-09-22T14:13:06.835Z,15.13
2022-09-22T14:16:02.784Z,15.05
2022-09-22T14:18:50.641Z,15.02
2022-09-22T14:21:38.068Z,14.98
2022-09-22T14:24:26.055Z,14.96
2022-09-22T14:27:15.575Z,14.90
2022-09-22T14:30:09.081Z,14.82
2022-09-22T14:33:08.146Z,14.78
2022-09-22T14:35:56.359Z,14.72
2022-09-22T14:38:48.412Z,14.66
2022-09-22T14:41:49.838Z,14.55
2022-09-22T14:45:01.811Z,14.47
2022-09-22T14:47:50.065Z,14.41
2022-09-22T14:50:58.713Z,14.33
2022-09-22T14:54:01.257Z,14.28
2022-09-22T14:56:51.325Z,14.19
2022-09-22T14:59:36.804Z,14.12
2022-09-22T15:02:22.161Z,14.05
2022-09-22T15:05:12.188Z,13.86
2022-09-22T15:08:08.007Z,13.85
2022-09-22T15:10:54.984Z,13.81
2022-09-22T15:13:38.235Z,13.76
2022-09-22T15:16:06.849Z,13.75
2022-09-22T15:18:33.887Z,13.70
2022-09-22T15:21:03.629Z,13.68
2022-09-22T15:23:45.277Z,13.66
2022-09-22T15:26:17.863Z,13.63
2022-09-22T15:28:48.477Z,13.55
2022-09-22T15:31:29.649Z,13.60
2022-09-22T15:34:00.185Z,13.60
2022-09-22T15:36:30.742Z,13.58
2022-09-22T15:39:07.233Z,13.55
2022-09-22T15:41:35.039Z,13.52
2022-09-22T15:44:03.328Z,13.49
2022-09-22T15:46:37.998Z,13.34
2022-09-22T15:49:20.848Z,13.42
2022-09-22T15:51:51.687Z,13.38
2022-09-22T15:54:21.465Z,13.39
2022-09-22T15:56:51.526Z,13.34
2022-09-22T15:59:24.376Z,13.33
2022-09-22T16:01:52.085Z,13.33
2022-09-22T16:04:20.131Z,13.30
2022-09-22T16:06:54.458Z,13.29
2022-09-22T16:09:21.526Z,13.27
2022-09-22T16:11:48.451Z,13.25
2022-09-22T16:14:15.424Z,13.21
2022-09-22T16:16:43.065Z,13.24
2022-09-22T16:19:10.548Z,13.22
2022-09-22T16:21:43.211Z,13.21
2022-09-22T16:24:11.684Z,13.05
2022-09-22T16:26:40.219Z,13.19
2022-09-22T16:29:08.448Z,13.17
2022-09-22T16:31:37.267Z,13.16
2022-09-22T16:34:25.449Z,13.14
2022-09-22T16:37:12.364Z,13.12
2022-09-22T16:39:59.300Z,13.10
2022-09-22T16:42:26.282Z,13.08
2022-09-22T16:44:53.166Z,13.06
2022-09-22T16:47:23.124Z,13.06
2022-09-22T16:49:51.425Z,13.05
2022-09-22T16:52:20.090Z,13.03
2022-09-22T16:54:47.188Z,13.01
2022-09-22T16:57:14.193Z,12.99
2022-09-22T16:59:41.060Z,12.98
2022-09-22T17:02:10.344Z,12.97
2022-09-22T17:04:37.464Z,12.96
2022-09-22T17:07:05.687Z,12.95
2022-09-22T17:09:33.015Z,12.95
2022-09-22T17:12:00.905Z,12.95
2022-09-22T17:14:29.066Z,12.91
2022-09-22T17:16:58.370Z,12.90
2022-09-22T17:19:27.750Z,12.74
2022-09-22T17:21:56.288Z,12.89
2022-09-22T17:24:24.896Z,12.88
2022-09-22T17:26:54.401Z,12.87
2022-09-22T17:29:25.073Z,12.85
2022-09-22T17:31:57.447Z,12.85
2022-09-22T17:34:28.655Z,12.84
2022-09-22T17:36:57.387Z,12.84
2022-09-22T17:39:26.895Z,12.83
2022-09-22T17:41:54.868Z,12.83
2022-09-22T17:44:22.838Z,12.82
2022-09-22T17:47:10.377Z,12.82
2022-09-22T17:49:57.508Z,12.80
2022-09-22T17:52:43.955Z,12.79
2022-09-22T17:55:20.327Z,12.79
2022-09-22T17:57:47.381Z,12.77
2022-09-22T18:00:19.405Z,12.77
2022-09-22T18:02:46.798Z,12.76
2022-09-22T18:05:16.344Z,12.76
2022-09-22T18:07:43.389Z,12.75
2022-09-22T18:10:15.751Z,12.74
2022-09-22T18:12:43.560Z,12.72
2022-09-22T18:15:13.469Z,12.71
2022-09-22T18:17:42.532Z,12.70
2022-09-22T18:20:15.015Z,12.69
2022-09-22T18:22:47.665Z,12.68
2022-09-22T18:25:23.935Z,12.67
2022-09-22T18:27:51.663Z,12.65
2022-09-22T18:30:19.523Z,12.62
2022-09-22T18:32:48.028Z,12.61
2022-09-22T18:35:15.283Z,12.59
2022-09-22T18:37:42.304Z,12.58
2022-09-22T18:40:11.919Z,12.57
2022-09-22T18:42:38.924Z,12.55
2022-09-22T18:45:06.527Z,12.53
2022-09-22T18:47:41.108Z,12.53
2022-09-22T18:50:08.713Z,12.39
2022-09-22T18:52:36.800Z,12.49
2022-09-22T18:55:05.082Z,12.49
2022-09-22T18:57:32.142Z,12.48
2022-09-22T19:00:01.200Z,12.47
2022-09-22T19:02:28.668Z,12.45
2022-09-22T19:04:55.736Z,12.42
2022-09-22T19:07:42.481Z,12.43
2022-09-22T19:10:20.517Z,12.40
2022-09-22T19:12:48.768Z,12.40
2022-09-22T19:15:18.814Z,12.40
2022-09-22T19:17:48.548Z,12.38
2022-09-22T19:20:18.540Z,12.38
2022-09-22T19:22:46.857Z,12.36
2022-09-22T19:25:13.863Z,12.33
2022-09-22T19:27:41.042Z,12.34
2022-09-22T19:30:09.696Z,12.34
2022-09-22T19:32:36.637Z,12.27
2022-09-22T19:35:04.555Z,12.30
2022-09-22T19:37:31.595Z,12.30
2022-09-22T19:39:58.641Z,12.29
2022-09-22T19:42:25.730Z,12.27
2022-09-22T19:44:52.871Z,12.26
2022-09-22T19:47:21.051Z,12.27
2022-09-22T19:49:48.275Z,12.25
2022-09-22T19:52:15.203Z,12.24
2022-09-22T19:54:42.105Z,12.23
2022-09-22T19:57:09.056Z,12.21
2022-09-22T19:59:36.068Z,12.20
2022-09-22T20:02:04.643Z,12.19
2022-09-22T20:04:34.688Z,12.19
2022-09-22T20:07:01.716Z,12.18
2022-09-22T20:09:28.968Z,12.00
2022-09-22T20:11:56.052Z,12.18
2022-09-22T20:14:23.711Z,12.19
2022-09-22T20:17:03.271Z,12.17
2022-09-22T20:19:32.612Z,12.18
2022-09-22T20:22:25.645Z,12.16
2022-09-22T20:24:55.762Z,12.14
2022-09-22T20:27:31.864Z,12.16
2022-09-22T20:29:59.963Z,12.16
2022-09-22T20:32:29.285Z,12.16
2022-09-22T20:34:56.369Z,12.15
2022-09-22T20:37:44.121Z,12.15
2022-09-22T20:40:36.815Z,12.15
2022-09-22T20:43:23.715Z,12.14
2022-09-22T20:46:10.704Z,12.14
2022-09-22T20:48:57.751Z,12.13
2022-09-22T20:51:44.781Z,12.13
2022-09-22T20:54:31.573Z,12.13
2022-09-22T20:57:18.557Z,12.13
2022-09-22T21:00:05.567Z,12.13
2022-09-22T21:02:53.315Z,12.14
2022-09-22T21:05:40.191Z,12.15
2022-09-22T21:08:25.855Z,12.12
2022-09-22T21:11:12.652Z,12.13
2022-09-22T21:13:59.803Z,12.14
2022-09-22T21:16:46.701Z,12.14
2022-09-22T21:19:33.884Z,12.14
2022-09-22T21:22:20.958Z,12.15
2022-09-22T21:25:08.112Z,12.15
2022-09-22T21:27:54.925Z,12.09
2022-09-22T21:30:42.018Z,12.14
2022-09-22T21:33:28.893Z,12.13
2022-09-22T21:36:30.744Z,12.14
2022-09-22T21:39:19.666Z,12.13
2022-09-22T21:42:06.594Z,12.13
2022-09-22T21:44:53.396Z,12.08
2022-09-22T21:47:40.317Z,12.10
2022-09-22T21:50:27.597Z,12.10
2022-09-22T21:53:14.696Z,12.09
2022-09-22T21:56:01.536Z,12.08
2022-09-22T21:58:50.312Z,12.08
2022-09-22T22:01:48.446Z,12.06
2022-09-22T22:04:35.799Z,12.06
2022-09-22T22:07:22.705Z,12.05
2022-09-22T22:10:09.584Z,12.04
2022-09-22T22:12:56.388Z,12.04
2022-09-22T22:15:43.512Z,12.03
2022-09-22T22:18:30.359Z,12.02
2022-09-22T22:21:19.251Z,12.01
2022-09-22T22:24:08.491Z,12.00
2022-09-22T22:26:56.916Z,11.92
2022-09-22T22:29:45.957Z,11.86
2022-09-22T22:32:33.055Z,11.95
2022-09-22T22:35:20.191Z,11.92
2022-09-22T22:38:07.208Z,11.92
2022-09-22T22:40:54.036Z,11.92
2022-09-22T22:43:41.260Z,11.91
2022-09-22T22:46:29.528Z,11.91
2022-09-22T22:49:17.296Z,11.90
2022-09-22T22:52:04.079Z,11.83
2022-09-22T22:54:51.137Z,11.88
2022-09-22T22:57:38.008Z,11.85
2022-09-22T23:00:25.481Z,11.85
2022-09-22T23:03:12.536Z,11.83
2022-09-22T23:05:59.481Z,11.81
2022-09-22T23:08:47.796Z,11.81
2022-09-22T23:11:41.193Z,11.80
2022-09-22T23:14:30.622Z,11.79
2022-09-22T23:17:17.613Z,11.79
2022-09-22T23:20:04.631Z,11.76
2022-09-22T23:22:52.392Z,11.74
2022-09-22T23:25:39.315Z,11.73
2022-09-22T23:28:26.280Z,11.72
2022-09-22T23:31:21.127Z,11.71
2022-09-22T23:34:09.636Z,11.71
2022-09-22T23:36:56.540Z,11.59
2022-09-22T23:39:43.548Z,11.65
2022-09-22T23:42:30.496Z,11.67
2022-09-22T23:45:17.431Z,11.65
2022-09-22T23:48:04.267Z,11.60
2022-09-22T23:50:51.244Z,11.62
2022-09-22T23:53:39.843Z,11.64
2022-09-22T23:56:27.191Z,11.63
2022-09-22T23:59:13.972Z,11.63
